Lake Suzy, Florida
Current Conditions -  °F | °C
As of 2:53 AM on Monday 26 Jan 2015 (Local Time) from KPGD Reporting Station
Overcast Overcast  
Wind Chill: 57°   Ceiling: 4600
Heat Index: 57°   Visibility: 10mi
Dew Point: 54°   Wind: 6mph
Humidity: 89%   Direction: 180°S
Pressure: 29.95"   Gusts: NA
Location:  27.0717°N, 81.9802°W
Report Text: KPGD 260753Z AUTO 18005KT 10SM OVC046 14/12 A2995 RMK AO2 SLP142 T01390122 $
Loading
Personal Weather Stations






























Interactive Weather Map New forecast layout! Learn more

10-Day Weather Forecast

Advertisements
Track Severe Weather on mobile